ESOK 162250Z AUTO 31006KT 9999 NCD M05/M05 Q0982